createdAt,value
2023-05-25T00:00:20.860Z,96780.28
2023-05-25T00:02:47.892Z,96784.19
2023-05-25T00:05:14.968Z,96771.56
2023-05-25T00:07:41.991Z,96776.47
2023-05-25T00:10:09.364Z,96777.63
2023-05-25T00:12:37.768Z,96778.88
2023-05-25T00:15:08.178Z,96779.94
2023-05-25T00:17:37.341Z,96782.94
2023-05-25T00:20:09.442Z,96790.69
2023-05-25T00:22:44.912Z,96799.22
2023-05-25T00:25:12.231Z,96797.97
2023-05-25T00:27:39.154Z,96793.72
2023-05-25T00:30:07.670Z,96793.72
2023-05-25T00:32:34.867Z,96799.38
2023-05-25T00:35:01.842Z,96793.50
2023-05-25T00:37:28.735Z,96794.72
2023-05-25T00:39:55.622Z,96791.44
2023-05-25T00:42:23.709Z,96783.13
2023-05-25T00:44:50.648Z,96789.00
2023-05-25T00:47:17.812Z,96782.13
2023-05-25T00:49:44.786Z,96784.72
2023-05-25T00:52:13.230Z,96798.44
2023-05-25T00:54:40.212Z,96793.16
2023-05-25T00:57:08.347Z,96798.78
2023-05-25T00:59:42.568Z,96797.78
2023-05-25T01:02:13.706Z,96792.25
2023-05-25T01:04:54.643Z,96788.97
2023-05-25T01:07:26.992Z,96792.25
2023-05-25T01:10:07.011Z,96793.44
2023-05-25T01:12:38.840Z,96792.22
2023-05-25T01:15:06.686Z,96781.63
2023-05-25T01:17:38.125Z,96786.53
2023-05-25T01:20:11.747Z,96771.50
2023-05-25T01:23:14.355Z,96773.13
2023-05-25T01:25:47.644Z,96773.56
2023-05-25T01:28:35.932Z,96771.50
2023-05-25T01:31:03.455Z,96776.84
2023-05-25T01:33:32.478Z,96779.69
2023-05-25T01:36:00.864Z,96787.88
2023-05-25T01:38:27.979Z,96791.50
2023-05-25T01:40:54.905Z,96795.06
2023-05-25T01:43:22.910Z,96783.75
2023-05-25T01:45:51.500Z,96793.16
2023-05-25T01:48:41.369Z,96792.63
2023-05-25T01:51:19.544Z,96800.38
2023-05-25T01:53:54.730Z,96800.38
2023-05-25T01:56:23.284Z,96798.78
2023-05-25T01:58:51.510Z,96795.75
2023-05-25T02:01:20.078Z,96801.16
2023-05-25T02:03:50.610Z,96807.22
2023-05-25T02:06:17.499Z,96800.41
2023-05-25T02:08:45.721Z,96797.91
2023-05-25T02:11:14.798Z,96795.06
2023-05-25T02:13:41.730Z,96797.03
2023-05-25T02:16:08.863Z,96793.56
2023-05-25T02:18:35.968Z,96793.41
2023-05-25T02:21:02.957Z,96800.75
2023-05-25T02:23:30.378Z,96788.88
2023-05-25T02:25:57.318Z,96788.09
2023-05-25T02:28:24.280Z,96791.38
2023-05-25T02:30:51.290Z,96783.19
2023-05-25T02:33:18.814Z,96786.84
2023-05-25T02:35:46.134Z,96777.75
2023-05-25T02:38:13.932Z,96773.84
2023-05-25T02:40:40.896Z,96767.72
2023-05-25T02:43:07.851Z,96780.75
2023-05-25T02:45:34.845Z,96775.88
2023-05-25T02:48:01.806Z,96777.19
2023-05-25T02:50:28.812Z,96778.31
2023-05-25T02:52:55.668Z,96784.38
2023-05-25T02:55:23.032Z,96779.84
2023-05-25T02:57:49.923Z,96774.31
2023-05-25T03:00:17.264Z,96776.97
2023-05-25T03:02:46.935Z,96771.22
2023-05-25T03:05:13.902Z,96781.41
2023-05-25T03:07:42.053Z,96775.25
2023-05-25T03:10:10.526Z,96779.31
2023-05-25T03:12:37.421Z,96772.78
2023-05-25T03:15:05.278Z,96778.69
2023-05-25T03:17:32.236Z,96788.22
2023-05-25T03:19:59.150Z,96780.88
2023-05-25T03:22:27.178Z,96775.16
2023-05-25T03:24:54.154Z,96778.94
2023-05-25T03:27:21.177Z,96780.63
2023-05-25T03:29:50.614Z,96782.59
2023-05-25T03:32:17.538Z,96783.81
2023-05-25T03:34:44.939Z,96781.75
2023-05-25T03:37:12.046Z,96782.91
2023-05-25T03:39:38.919Z,96785.00
2023-05-25T03:42:06.454Z,96779.34
2023-05-25T03:44:33.323Z,96774.03
2023-05-25T03:47:00.279Z,96773.31
2023-05-25T03:49:28.033Z,96785.16
2023-05-25T03:51:54.974Z,96795.94
2023-05-25T03:54:21.869Z,96785.88
2023-05-25T03:56:48.795Z,96793.38
2023-05-25T03:59:15.676Z,96794.38
2023-05-25T04:01:42.541Z,96794.28
2023-05-25T04:04:09.477Z,96793.78
2023-05-25T04:06:37.364Z,96786.63
2023-05-25T04:09:05.049Z,96797.94
2023-05-25T04:11:31.959Z,96801.22
2023-05-25T04:13:59.919Z,96792.94
2023-05-25T04:16:27.078Z,96789.44
2023-05-25T04:18:53.973Z,96793.19
2023-05-25T04:21:20.877Z,96805.16
2023-05-25T04:23:47.956Z,96800.78
2023-05-25T04:26:16.443Z,96805.81
2023-05-25T04:28:43.393Z,96798.31
2023-05-25T04:31:12.824Z,96811.91
2023-05-25T04:33:40.665Z,96815.50
2023-05-25T04:36:11.079Z,96820.00
2023-05-25T04:38:38.104Z,96813.94
2023-05-25T04:41:06.425Z,96819.66
2023-05-25T04:43:33.796Z,96819.59
2023-05-25T04:46:00.948Z,96825.59
2023-05-25T04:48:32.620Z,96819.28
2023-05-25T04:51:03.016Z,96809.59
2023-05-25T04:53:30.182Z,96819.75
2023-05-25T04:55:57.736Z,96817.94
2023-05-25T04:58:25.033Z,96821.03
2023-05-25T05:00:52.775Z,96818.28
2023-05-25T05:03:19.963Z,96826.69
2023-05-25T05:05:46.984Z,96828.63
2023-05-25T05:08:14.112Z,96820.41
2023-05-25T05:10:41.028Z,96834.69
2023-05-25T05:13:07.915Z,96825.97
2023-05-25T05:15:34.804Z,96824.94
2023-05-25T05:18:01.809Z,96828.41
2023-05-25T05:20:28.698Z,96835.25
2023-05-25T05:22:55.767Z,96837.22
2023-05-25T05:25:22.662Z,96838.66
2023-05-25T05:27:49.520Z,96832.28
2023-05-25T05:30:16.454Z,96834.19
2023-05-25T05:32:45.246Z,96844.53
2023-05-25T05:35:13.470Z,96848.63
2023-05-25T05:37:40.389Z,96853.34
2023-05-25T05:40:09.028Z,96855.97
2023-05-25T05:42:35.989Z,96839.31
2023-05-25T05:45:02.950Z,96844.91
2023-05-25T05:47:29.905Z,96852.00
2023-05-25T05:49:56.773Z,96848.25
2023-05-25T05:52:23.690Z,96857.31
2023-05-25T05:54:50.593Z,96860.41
2023-05-25T05:57:17.455Z,96851.69
2023-05-25T05:59:44.325Z,96859.66
2023-05-25T06:02:11.404Z,96857.28
2023-05-25T06:04:38.429Z,96864.38
2023-05-25T06:07:05.731Z,96865.34
2023-05-25T06:09:32.600Z,96858.44
2023-05-25T06:11:59.494Z,96861.66
2023-05-25T06:14:28.559Z,96861.78
2023-05-25T06:16:55.920Z,96871.56
2023-05-25T06:19:22.866Z,96864.69
2023-05-25T06:21:49.801Z,96873.84
2023-05-25T06:24:16.698Z,96883.59
2023-05-25T06:26:43.727Z,96870.56
2023-05-25T06:29:10.826Z,96880.03
2023-05-25T06:31:37.804Z,96880.78
2023-05-25T06:34:04.717Z,96878.38
2023-05-25T06:36:32.617Z,96883.44
2023-05-25T06:38:59.523Z,96879.50
2023-05-25T06:41:26.453Z,96875.25
2023-05-25T06:43:53.367Z,96881.16
2023-05-25T06:46:21.573Z,96878.84
2023-05-25T06:48:48.531Z,96889.69
2023-05-25T06:51:15.565Z,96880.84
2023-05-25T06:53:42.525Z,96888.84
2023-05-25T06:56:09.398Z,96877.09
2023-05-25T06:58:36.289Z,96882.78
2023-05-25T07:01:03.429Z,96881.41
2023-05-25T07:03:30.399Z,96883.63
2023-05-25T07:05:57.397Z,96888.75
2023-05-25T07:08:24.323Z,96885.56
2023-05-25T07:10:51.350Z,96885.38
2023-05-25T07:13:18.273Z,96888.94
2023-05-25T07:15:45.451Z,96897.63
2023-05-25T07:18:13.346Z,96891.09
2023-05-25T07:20:43.929Z,96890.88
2023-05-25T07:23:12.648Z,96880.34
2023-05-25T07:25:40.727Z,96886.47
2023-05-25T07:28:08.759Z,96889.25
2023-05-25T07:30:35.739Z,96895.91
2023-05-25T07:33:02.750Z,96885.47
2023-05-25T07:35:29.701Z,96886.28
2023-05-25T07:38:02.257Z,96896.59
2023-05-25T07:40:29.175Z,96899.16
2023-05-25T07:42:56.292Z,96905.75
2023-05-25T07:45:23.467Z,96901.59
2023-05-25T07:47:50.541Z,96899.47
2023-05-25T07:50:17.765Z,96904.81
2023-05-25T07:52:45.115Z,96906.75
2023-05-25T07:55:12.204Z,96910.03
2023-05-25T07:57:39.176Z,96906.63
2023-05-25T08:00:08.223Z,96917.91
2023-05-25T08:02:35.223Z,96911.13
2023-05-25T08:05:05.685Z,96917.63
2023-05-25T08:07:34.129Z,96920.06
2023-05-25T08:10:01.823Z,96925.72
2023-05-25T08:12:42.428Z,96933.53
2023-05-25T08:15:16.665Z,96933.38
2023-05-25T08:17:43.947Z,96933.03
2023-05-25T08:20:11.797Z,96931.84
2023-05-25T08:22:38.730Z,96932.78
2023-05-25T08:25:06.964Z,96932.28
2023-05-25T08:27:35.812Z,96936.50
2023-05-25T08:30:07.153Z,96932.03
2023-05-25T08:32:34.082Z,96935.41
2023-05-25T08:35:02.060Z,96935.69
2023-05-25T08:37:29.369Z,96935.69
2023-05-25T08:39:56.499Z,96932.25
2023-05-25T08:42:23.886Z,96934.66
2023-05-25T08:44:50.809Z,96937.59
2023-05-25T08:47:20.472Z,96938.69
2023-05-25T08:49:50.139Z,96938.63
2023-05-25T08:52:24.140Z,96937.41
2023-05-25T08:54:54.348Z,96940.25
2023-05-25T08:57:32.247Z,96941.34
2023-05-25T09:00:13.097Z,96943.97
2023-05-25T09:03:18.646Z,96941.34
2023-05-25T09:05:46.855Z,96942.97
2023-05-25T09:08:14.875Z,96952.56
2023-05-25T09:10:42.297Z,96937.28
2023-05-25T09:13:21.149Z,96947.41
2023-05-25T09:15:50.738Z,96944.78
2023-05-25T09:18:17.912Z,96953.50
2023-05-25T09:20:47.069Z,96948.13
2023-05-25T09:23:16.113Z,96952.06
2023-05-25T09:25:43.922Z,96946.66
2023-05-25T09:28:25.429Z,96944.38
2023-05-25T09:30:54.017Z,96953.50
2023-05-25T09:33:21.537Z,96946.91
2023-05-25T09:35:49.268Z,96949.03
2023-05-25T09:38:17.454Z,96966.13
2023-05-25T09:40:45.754Z,96963.81
2023-05-25T09:43:21.838Z,96957.97
2023-05-25T09:45:55.277Z,96970.63
2023-05-25T09:48:23.091Z,96969.47
2023-05-25T09:50:51.716Z,96962.06
2023-05-25T09:53:19.075Z,96962.06
2023-05-25T09:55:53.655Z,96965.41
2023-05-25T09:58:25.099Z,96966.69
2023-05-25T10:00:55.298Z,96961.53
2023-05-25T10:03:22.725Z,96944.03
2023-05-25T10:05:50.425Z,96948.56
2023-05-25T10:08:21.803Z,96943.47
2023-05-25T10:10:50.264Z,96956.03
2023-05-25T10:13:24.874Z,96949.47
2023-05-25T10:15:56.760Z,96949.53
2023-05-25T10:18:28.651Z,96951.25
2023-05-25T10:21:04.225Z,96960.56
2023-05-25T10:23:41.913Z,96957.78
2023-05-25T10:26:10.211Z,96960.66
2023-05-25T10:28:39.832Z,96959.97
2023-05-25T10:31:09.412Z,96957.56
2023-05-25T10:33:37.741Z,96961.31
2023-05-25T10:38:36.536Z,96964.13
2023-05-25T10:41:05.947Z,96966.06
2023-05-25T10:43:34.309Z,96959.34
2023-05-25T10:46:01.992Z,96960.69
2023-05-25T10:48:39.226Z,96960.16
2023-05-25T10:51:08.825Z,96966.06
2023-05-25T10:53:37.095Z,96962.31
2023-05-25T10:56:09.935Z,96958.75
2023-05-25T10:58:46.462Z,96960.03
2023-05-25T11:01:15.882Z,96959.59
2023-05-25T11:04:11.320Z,96968.78
2023-05-25T11:06:40.348Z,96963.28
2023-05-25T11:09:07.740Z,96969.75
2023-05-25T11:11:43.755Z,96961.91
2023-05-25T11:14:31.332Z,96952.69
2023-05-25T11:17:14.776Z,96957.66
2023-05-25T11:19:53.968Z,96959.09
2023-05-25T11:22:22.927Z,96952.84
2023-05-25T11:24:52.403Z,96945.59
2023-05-25T11:27:24.113Z,96943.00
2023-05-25T11:29:52.201Z,96945.69
2023-05-25T11:32:19.845Z,96942.41
2023-05-25T11:34:47.850Z,96935.34
2023-05-25T11:37:22.717Z,96934.31
2023-05-25T11:39:53.510Z,96927.19
2023-05-25T11:42:24.158Z,96923.22
2023-05-25T11:44:51.831Z,96921.19
2023-05-25T11:47:23.075Z,96923.84
2023-05-25T11:49:50.612Z,96923.78
2023-05-25T11:52:19.460Z,96917.94
2023-05-25T11:54:47.139Z,96920.81
2023-05-25T11:57:25.459Z,96915.38
2023-05-25T11:59:54.860Z,96914.44
2023-05-25T12:02:23.391Z,96902.31
2023-05-25T12:05:03.940Z,96902.75
2023-05-25T12:07:32.029Z,96911.31
2023-05-25T12:10:11.312Z,96905.84
2023-05-25T12:12:43.025Z,96899.69
2023-05-25T12:15:12.989Z,96892.13
2023-05-25T12:17:45.041Z,96892.47
2023-05-25T12:20:15.266Z,96887.19
2023-05-25T12:22:44.165Z,96898.34
2023-05-25T12:25:13.086Z,96892.94
2023-05-25T12:27:40.339Z,96889.72
2023-05-25T12:30:10.313Z,96883.53
2023-05-25T12:33:03.849Z,96890.91
2023-05-25T12:35:46.065Z,96884.00
2023-05-25T12:38:18.662Z,96886.13
2023-05-25T12:40:45.906Z,96885.75
2023-05-25T12:43:16.821Z,96892.56
2023-05-25T12:45:44.112Z,96889.63
2023-05-25T12:48:11.229Z,96885.56
2023-05-25T12:50:38.267Z,96889.34
2023-05-25T12:53:05.691Z,96890.72
2023-05-25T12:55:35.509Z,96890.59
2023-05-25T12:58:05.468Z,96887.59
2023-05-25T13:00:34.522Z,96883.06
2023-05-25T13:03:01.896Z,96882.44
2023-05-25T13:05:34.254Z,96876.72
2023-05-25T13:08:02.917Z,96878.09
2023-05-25T13:10:32.813Z,96874.84
2023-05-25T13:13:00.594Z,96876.28
2023-05-25T13:15:28.137Z,96872.72
2023-05-25T13:17:56.448Z,96883.75
2023-05-25T13:20:26.062Z,96871.69
2023-05-25T13:22:55.817Z,96868.13
2023-05-25T13:25:23.508Z,96861.09
2023-05-25T13:27:52.798Z,96861.94
2023-05-25T13:30:22.073Z,96858.41
2023-05-25T13:32:51.653Z,96861.91
2023-05-25T13:35:24.166Z,96866.66
2023-05-25T13:37:51.360Z,96858.50
2023-05-25T13:40:19.155Z,96862.31
2023-05-25T13:42:46.162Z,96857.81
2023-05-25T13:45:13.895Z,96857.75
2023-05-25T13:47:43.519Z,96856.09
2023-05-25T13:50:11.315Z,96851.22
2023-05-25T13:52:38.233Z,96857.56
2023-05-25T13:55:05.777Z,96857.47
2023-05-25T13:57:32.699Z,96855.81
2023-05-25T13:59:59.591Z,96853.28
2023-05-25T14:02:26.757Z,96849.47
2023-05-25T14:04:53.785Z,96846.66
2023-05-25T14:07:20.632Z,96833.19
2023-05-25T14:09:47.528Z,96844.00
2023-05-25T14:12:14.589Z,96838.59
2023-05-25T14:14:41.586Z,96838.88
2023-05-25T14:17:08.522Z,96841.00
2023-05-25T14:19:35.475Z,96848.97
2023-05-25T14:24:32.208Z,96853.50
2023-05-25T14:26:59.218Z,96841.91
2023-05-25T14:29:26.107Z,96837.41
2023-05-25T14:31:53.188Z,96845.44
2023-05-25T14:34:20.234Z,96832.03
2023-05-25T14:36:47.156Z,96832.72
2023-05-25T14:39:16.476Z,96836.72
2023-05-25T14:41:44.345Z,96842.25
2023-05-25T14:44:11.254Z,96841.28
2023-05-25T14:46:38.218Z,96840.38
2023-05-25T14:49:05.236Z,96838.56
2023-05-25T14:51:32.126Z,96830.38
2023-05-25T14:54:01.311Z,96835.97
2023-05-25T14:56:28.409Z,96835.69
2023-05-25T14:58:55.322Z,96838.94
2023-05-25T15:01:25.053Z,96837.75
2023-05-25T15:03:52.559Z,96836.47
2023-05-25T15:06:19.773Z,96843.84
2023-05-25T15:08:46.859Z,96833.97
2023-05-25T15:11:13.821Z,96844.66
2023-05-25T15:13:40.991Z,96832.63
2023-05-25T15:16:12.242Z,96833.09
2023-05-25T15:18:39.420Z,96829.34
2023-05-25T15:21:06.381Z,96830.75
2023-05-25T15:23:33.509Z,96836.75
2023-05-25T15:26:04.423Z,96825.22
2023-05-25T15:28:31.927Z,96835.31
2023-05-25T15:31:01.711Z,96829.63
2023-05-25T15:33:44.174Z,96824.75
2023-05-25T15:36:16.928Z,96834.53
2023-05-25T15:38:44.534Z,96831.41
2023-05-25T15:41:17.920Z,96835.47
2023-05-25T15:43:57.776Z,96824.91
2023-05-25T15:46:25.099Z,96827.47
2023-05-25T15:48:52.083Z,96818.09
2023-05-25T15:51:18.957Z,96817.28
2023-05-25T15:53:46.812Z,96820.44
2023-05-25T15:56:13.896Z,96820.06
2023-05-25T15:58:40.903Z,96820.06
2023-05-25T16:01:07.847Z,96825.34
2023-05-25T16:03:34.808Z,96813.28
2023-05-25T16:06:02.357Z,96810.81
2023-05-25T16:08:29.270Z,96806.97
2023-05-25T16:10:56.227Z,96817.38
2023-05-25T16:13:23.119Z,96830.50
2023-05-25T16:15:50.048Z,96832.66
2023-05-25T16:18:17.014Z,96825.66
2023-05-25T16:20:44.172Z,96829.84
2023-05-25T16:23:11.195Z,96832.28
2023-05-25T16:25:38.212Z,96830.09
2023-05-25T16:28:05.280Z,96830.69
2023-05-25T16:30:32.177Z,96834.56
2023-05-25T16:32:59.102Z,96832.69
2023-05-25T16:35:25.997Z,96831.25
2023-05-25T16:37:52.897Z,96836.16
2023-05-25T16:40:19.752Z,96827.50
2023-05-25T16:42:46.617Z,96836.28
2023-05-25T16:45:13.524Z,96836.53
2023-05-25T16:47:40.700Z,96830.16
2023-05-25T16:50:08.578Z,96833.38
2023-05-25T16:52:35.878Z,96830.97
2023-05-25T16:55:02.776Z,96841.03
2023-05-25T16:57:29.750Z,96834.13
2023-05-25T16:59:56.639Z,96837.59
2023-05-25T17:02:23.564Z,96841.91
2023-05-25T17:04:50.558Z,96840.06
2023-05-25T17:07:17.899Z,96837.34
2023-05-25T17:09:44.791Z,96843.78
2023-05-25T17:12:11.766Z,96845.41
2023-05-25T17:14:38.694Z,96847.00
2023-05-25T17:17:05.692Z,96844.84
2023-05-25T17:19:32.597Z,96848.88
2023-05-25T17:21:59.441Z,96854.78
2023-05-25T17:24:26.303Z,96847.56
2023-05-25T17:26:53.297Z,96853.50
2023-05-25T17:29:20.199Z,96848.13
2023-05-25T17:31:48.789Z,96856.69
2023-05-25T17:34:16.832Z,96845.16
2023-05-25T17:36:43.806Z,96850.22
2023-05-25T17:39:10.860Z,96841.34
2023-05-25T17:41:37.725Z,96848.59
2023-05-25T17:44:04.614Z,96845.09
2023-05-25T17:46:31.614Z,96842.97
2023-05-25T17:48:58.561Z,96845.91
2023-05-25T17:51:25.795Z,96855.84
2023-05-25T17:53:52.895Z,96852.84
2023-05-25T17:56:19.959Z,96856.84
2023-05-25T17:58:47.884Z,96858.16
2023-05-25T18:01:16.095Z,96853.34
2023-05-25T18:03:43.550Z,96856.53
2023-05-25T18:06:10.851Z,96851.16
2023-05-25T18:08:37.846Z,96854.84
2023-05-25T18:11:05.375Z,96859.88
2023-05-25T18:13:32.334Z,96856.34
2023-05-25T18:15:59.712Z,96860.31
2023-05-25T18:18:26.644Z,96870.75
2023-05-25T18:20:53.519Z,96877.13
2023-05-25T18:23:22.088Z,96870.06
2023-05-25T18:25:48.945Z,96873.16
2023-05-25T18:28:16.021Z,96885.16
2023-05-25T18:30:43.123Z,96873.50
2023-05-25T18:33:10.775Z,96875.63
2023-05-25T18:35:38.261Z,96878.78
2023-05-25T18:38:06.552Z,96879.78
2023-05-25T18:40:33.539Z,96876.50
2023-05-25T18:43:00.682Z,96879.03
2023-05-25T18:45:27.847Z,96876.19
2023-05-25T18:47:54.817Z,96886.72
2023-05-25T18:50:21.764Z,96885.84
2023-05-25T18:52:51.287Z,96883.75
2023-05-25T18:55:19.001Z,96888.19
2023-05-25T18:57:46.647Z,96888.66
2023-05-25T19:00:14.448Z,96898.41
2023-05-25T19:02:41.616Z,96893.81
2023-05-25T19:05:13.015Z,96898.22
2023-05-25T19:07:50.959Z,96893.06
2023-05-25T19:10:25.447Z,96896.34
2023-05-25T19:12:52.435Z,96899.72
2023-05-25T19:15:19.519Z,96899.91
2023-05-25T19:17:49.674Z,96898.38
2023-05-25T19:20:17.113Z,96904.78
2023-05-25T19:22:44.389Z,96907.53
2023-05-25T19:25:11.349Z,96909.75
2023-05-25T19:27:38.373Z,96914.19
2023-05-25T19:30:06.098Z,96920.72
2023-05-25T19:32:33.098Z,96920.84
2023-05-25T19:35:00.029Z,96927.41
2023-05-25T19:37:27.010Z,96928.59
2023-05-25T19:39:53.909Z,96935.69
2023-05-25T19:42:20.813Z,96932.91
2023-05-25T19:44:47.751Z,96938.25
2023-05-25T19:47:14.692Z,96935.03
2023-05-25T19:49:41.634Z,96939.81
2023-05-25T19:52:08.721Z,96946.75
2023-05-25T19:54:35.649Z,96949.34
2023-05-25T19:57:02.899Z,96948.75
2023-05-25T19:59:31.149Z,96951.28
2023-05-25T20:01:58.386Z,96952.47
2023-05-25T20:04:25.726Z,96959.66
2023-05-25T20:06:53.342Z,96962.88
2023-05-25T20:09:24.481Z,96966.13
2023-05-25T20:11:51.389Z,96957.44
2023-05-25T20:14:20.077Z,96963.38
2023-05-25T20:16:47.389Z,96967.75
2023-05-25T20:19:14.367Z,96964.06
2023-05-25T20:21:41.326Z,96975.16
2023-05-25T20:24:08.198Z,96979.81
2023-05-25T20:26:35.144Z,96970.88
2023-05-25T20:29:02.141Z,96971.38
2023-05-25T20:31:29.112Z,96968.72
2023-05-25T20:33:56.122Z,96979.81
2023-05-25T20:36:22.989Z,96977.97
2023-05-25T20:38:49.864Z,96987.44
2023-05-25T20:41:16.775Z,96983.03
2023-05-25T20:43:43.634Z,96980.03
2023-05-25T20:46:11.285Z,96986.25
2023-05-25T20:48:39.589Z,96981.38
2023-05-25T20:51:06.543Z,96987.16
2023-05-25T20:53:33.437Z,96989.22
2023-05-25T20:56:02.387Z,96994.41
2023-05-25T20:58:29.302Z,96984.53
2023-05-25T21:00:56.351Z,96984.19
2023-05-25T21:03:23.322Z,96989.16
2023-05-25T21:05:50.388Z,96986.13
2023-05-25T21:08:17.275Z,96985.06
2023-05-25T21:10:44.144Z,96982.41
2023-05-25T21:13:11.613Z,96988.03
2023-05-25T21:15:38.522Z,96986.28
2023-05-25T21:18:07.025Z,96984.38
2023-05-25T21:20:34.168Z,96983.06
2023-05-25T21:23:02.579Z,96982.97
2023-05-25T21:25:30.582Z,96988.38
2023-05-25T21:27:57.740Z,96988.78
2023-05-25T21:30:24.769Z,96986.72
2023-05-25T21:32:51.757Z,96992.66
2023-05-25T21:35:18.710Z,96984.59
2023-05-25T21:37:45.871Z,96988.25
2023-05-25T21:40:13.174Z,96995.31
2023-05-25T21:42:40.048Z,96994.88
2023-05-25T21:45:07.673Z,96992.94
2023-05-25T21:47:34.652Z,96988.00
2023-05-25T21:50:01.690Z,96981.41
2023-05-25T21:52:28.585Z,96983.34
2023-05-25T21:54:55.535Z,96981.00
2023-05-25T21:57:22.462Z,96988.66
2023-05-25T21:59:49.404Z,96989.59
2023-05-25T22:02:16.397Z,96982.09
2023-05-25T22:04:43.274Z,96988.38
2023-05-25T22:07:10.413Z,96987.88
2023-05-25T22:09:37.282Z,96990.59
2023-05-25T22:12:04.591Z,96994.13
2023-05-25T22:14:31.475Z,96990.13
2023-05-25T22:16:58.462Z,96985.69
2023-05-25T22:19:25.466Z,96988.59
2023-05-25T22:21:53.451Z,96991.31
2023-05-25T22:24:20.550Z,96997.47
2023-05-25T22:26:47.546Z,96998.16
2023-05-25T22:29:14.625Z,96996.19
2023-05-25T22:31:41.528Z,96991.13
2023-05-25T22:34:08.412Z,96988.78
2023-05-25T22:36:36.721Z,96997.31
2023-05-25T22:39:03.742Z,96999.38
2023-05-25T22:41:30.742Z,96995.28
2023-05-25T22:43:57.642Z,96995.13
2023-05-25T22:46:24.561Z,97006.53
2023-05-25T22:48:51.698Z,97004.53
2023-05-25T22:51:18.591Z,97003.13
2023-05-25T22:53:45.592Z,97006.00
2023-05-25T22:56:12.526Z,97006.81
2023-05-25T22:58:39.437Z,97000.91
2023-05-25T23:01:06.362Z,97004.44
2023-05-25T23:03:33.305Z,97006.09
2023-05-25T23:06:00.269Z,97004.28
2023-05-25T23:08:27.455Z,97008.78
2023-05-25T23:10:54.310Z,97011.44
2023-05-25T23:13:24.060Z,97008.19
2023-05-25T23:15:51.187Z,97009.81
2023-05-25T23:18:18.139Z,97005.31
2023-05-25T23:20:45.177Z,97008.19
2023-05-25T23:23:12.687Z,97002.91
2023-05-25T23:25:39.644Z,97008.59
2023-05-25T23:28:06.561Z,97006.19
2023-05-25T23:30:33.486Z,96999.88
2023-05-25T23:33:00.691Z,97007.22
2023-05-25T23:35:28.650Z,97005.75
2023-05-25T23:37:57.576Z,97008.59
2023-05-25T23:40:24.647Z,97003.31
2023-05-25T23:42:52.041Z,97008.19
2023-05-25T23:45:19.715Z,97008.59
2023-05-25T23:47:46.905Z,97002.66
2023-05-25T23:50:13.835Z,97002.84
2023-05-25T23:52:41.710Z,97007.53
2023-05-25T23:55:08.938Z,97004.09
2023-05-25T23:57:36.628Z,97004.25
